Time;durP1;ratioP1;P1;durP2;ratioP2;P2;SDS_P1;SDS_P2;PMS_P1;PMS_P2;Temp;Humidity;BMP_temperature;BMP_pressure;BME280_temperature;BME280_humidity;BME280_pressure;Samples;Min_cycle;Max_cycle;Signal;HPM_P1;HPM_P2
2023/03/20 00:02:05;;;;;;;12.65;6.72;;;9.80;99.90;;;;;;4966064;28;20042;-74
2023/03/20 00:04:31;;;;;;;17.45;9.32;;;9.80;99.90;;;;;;4959741;28;21508;-76
2023/03/20 00:06:58;;;;;;;15.95;9.27;;;9.80;99.90;;;;;;4936734;28;20477;-74
2023/03/20 00:09:25;;;;;;;15.10;7.55;;;9.80;99.90;;;;;;4946917;28;20085;-76
2023/03/20 00:11:54;;;;;;;13.30;7.22;;;9.90;99.90;;;;;;4955412;28;20034;-76
2023/03/20 00:14:23;;;;;;;12.45;7.15;;;9.80;99.90;;;;;;4941665;28;20041;-74
2023/03/20 00:16:50;;;;;;;14.13;7.40;;;9.80;99.90;;;;;;4970344;28;20054;-74
2023/03/20 00:19:22;;;;;;;11.75;6.88;;;9.80;99.90;;;;;;4967013;28;20052;-76
2023/03/20 00:21:49;;;;;;;12.95;6.80;;;9.80;99.90;;;;;;4961748;28;20041;-74
2023/03/20 00:24:16;;;;;;;16.05;7.82;;;9.80;99.90;;;;;;4963146;28;20472;-74
2023/03/20 00:26:44;;;;;;;17.00;8.00;;;9.70;99.90;;;;;;4942504;28;20049;-73
2023/03/20 00:29:23;;;;;;;13.63;8.45;;;9.80;99.90;;;;;;4967174;28;20072;-76
2023/03/20 00:31:49;;;;;;;16.67;9.23;;;9.70;99.90;;;;;;4972449;28;20565;-75
2023/03/20 00:34:19;;;;;;;13.25;7.53;;;9.70;99.90;;;;;;4972968;28;20034;-74
2023/03/20 00:36:46;;;;;;;10.95;5.63;;;9.70;99.90;;;;;;4954201;28;20045;-76
2023/03/20 00:39:12;;;;;;;13.68;7.05;;;9.70;99.90;;;;;;4974498;28;20061;-74
2023/03/20 00:41:43;;;;;;;11.63;6.50;;;9.70;99.90;;;;;;4964055;28;20057;-76
2023/03/20 00:44:15;;;;;;;15.85;8.88;;;9.70;99.90;;;;;;4940235;28;20861;-74
2023/03/20 00:46:43;;;;;;;16.90;10.23;;;9.70;99.90;;;;;;4953299;28;20053;-74
2023/03/20 00:49:10;;;;;;;13.52;9.00;;;9.70;99.90;;;;;;4941777;28;20050;-75
2023/03/20 00:51:38;;;;;;;12.98;8.63;;;9.60;99.90;;;;;;4936445;28;20508;-76
2023/03/20 00:54:16;;;;;;;13.15;8.35;;;9.60;99.90;;;;;;4920863;28;20037;-76
2023/03/20 00:56:48;;;;;;;11.55;8.52;;;9.60;99.90;;;;;;4960202;28;20053;-76
2023/03/20 00:59:19;;;;;;;10.95;8.43;;;9.60;99.90;;;;;;4953509;28;20049;-76
2023/03/20 01:01:46;;;;;;;17.85;9.95;;;9.60;99.90;;;;;;4964562;28;20521;-76
2023/03/20 01:04:15;;;;;;;16.60;10.07;;;9.60;99.90;;;;;;4946461;28;20046;-76
2023/03/20 01:06:42;;;;;;;14.05;9.15;;;9.50;99.90;;;;;;4916616;28;20049;-75
2023/03/20 01:09:09;;;;;;;15.25;10.18;;;9.50;99.90;;;;;;4946083;28;20105;-76
2023/03/20 01:11:37;;;;;;;15.45;10.35;;;9.50;99.90;;;;;;4949418;28;20576;-76
2023/03/20 01:14:05;;;;;;;12.55;8.38;;;9.50;99.90;;;;;;4955061;28;20054;-76
2023/03/20 01:16:31;;;;;;;16.65;9.95;;;9.60;99.90;;;;;;4963624;28;20042;-74
2023/03/20 01:18:57;;;;;;;16.60;10.90;;;9.60;99.90;;;;;;4935470;28;20039;-76
2023/03/20 01:21:24;;;;;;;17.52;10.30;;;9.50;99.90;;;;;;4942355;28;20034;-75
2023/03/20 01:23:50;;;;;;;15.30;10.68;;;9.50;99.90;;;;;;4950922;28;20038;-74
2023/03/20 01:26:22;;;;;;;22.48;14.60;;;9.50;99.90;;;;;;4952422;28;20031;-76
2023/03/20 01:28:49;;;;;;;16.40;10.67;;;9.50;99.90;;;;;;4933213;28;20058;-74
2023/03/20 01:31:17;;;;;;;20.90;13.93;;;9.50;99.90;;;;;;4951952;28;20296;-75
2023/03/20 01:33:44;;;;;;;18.10;12.80;;;9.50;99.90;;;;;;4929509;28;20034;-74
2023/03/20 01:36:13;;;;;;;29.75;17.30;;;9.50;99.90;;;;;;4921970;28;20678;-74
2023/03/20 01:38:40;;;;;;;20.70;14.20;;;9.50;99.90;;;;;;4966114;28;20891;-76
2023/03/20 01:41:12;;;;;;;20.08;12.80;;;9.50;99.90;;;;;;4929322;28;20030;-74
2023/03/20 01:43:40;;;;;;;;;;;9.50;99.90;;;;;;4950095;28;21932;-77
2023/03/20 01:46:10;;;;;;;19.63;12.07;;;9.50;99.90;;;;;;4950072;28;19918;-75
2023/03/20 01:48:49;;;;;;;17.38;11.13;;;9.40;99.90;;;;;;4928960;28;20057;-75
2023/03/20 01:51:25;;;;;;;19.25;10.70;;;9.40;99.90;;;;;;4954670;28;20034;-73
2023/03/20 01:54:07;;;;;;;26.15;12.68;;;9.40;99.90;;;;;;4948206;28;20054;-74
2023/03/20 01:56:45;;;;;;;13.85;9.27;;;9.40;99.90;;;;;;4948559;28;20034;-75
2023/03/20 01:59:41;;;;;;;13.77;8.60;;;9.40;99.90;;;;;;4929125;28;20069;-76
2023/03/20 02:02:21;;;;;;;15.93;9.93;;;9.40;99.90;;;;;;4947203;28;20076;-74
2023/03/20 02:04:52;;;;;;;17.45;9.75;;;9.40;99.90;;;;;;4939885;28;20053;-74
2023/03/20 02:07:22;;;;;;;13.30;8.80;;;9.30;99.90;;;;;;4947246;28;20077;-74
2023/03/20 02:09:59;;;;;;;18.05;10.57;;;9.30;99.90;;;;;;4930650;28;21318;-76
2023/03/20 02:12:37;;;;;;;13.98;8.75;;;9.30;99.90;;;;;;4932769;28;20042;-74
2023/03/20 02:15:06;;;;;;;17.33;10.05;;;9.30;99.90;;;;;;4948779;28;20069;-75
2023/03/20 02:17:49;;;;;;;9.93;7.30;;;9.30;99.90;;;;;;4948351;28;20057;-74
2023/03/20 02:20:37;;;;;;;11.90;7.88;;;9.30;99.90;;;;;;4939295;28;20053;-74
2023/03/20 02:23:23;;;;;;;9.05;5.97;;;9.30;99.90;;;;;;4958821;28;20578;-76
2023/03/20 02:26:11;;;;;;;10.57;6.20;;;9.20;99.90;;;;;;4958009;28;20045;-74
2023/03/20 02:29:08;;;;;;;12.23;6.78;;;9.20;99.90;;;;;;4947021;28;21869;-75
2023/03/20 02:32:14;;;;;;;11.82;6.45;;;9.20;99.90;;;;;;4943038;28;20046;-76
2023/03/20 02:34:53;;;;;;;10.57;6.28;;;9.20;99.90;;;;;;4952087;28;20054;-74
2023/03/20 02:37:35;;;;;;;8.65;4.95;;;9.20;99.90;;;;;;4949455;28;20041;-74
2023/03/20 02:40:26;;;;;;;10.98;3.95;;;9.10;99.90;;;;;;4949268;28;20047;-76
2023/03/20 02:43:18;;;;;;;8.25;3.63;;;9.10;99.90;;;;;;4928220;28;20069;-73
2023/03/20 02:45:57;;;;;;;6.70;3.28;;;9.10;99.90;;;;;;4912623;28;20042;-75
2023/03/20 02:48:54;;;;;;;8.68;4.22;;;9.10;99.90;;;;;;4948876;28;20192;-76
2023/03/20 02:51:40;;;;;;;8.43;3.88;;;9.10;99.90;;;;;;4943243;28;20083;-75
2023/03/20 02:54:22;;;;;;;6.22;2.90;;;9.10;99.90;;;;;;4950279;28;20042;-76
2023/03/20 02:57:07;;;;;;;5.43;3.10;;;9.10;99.90;;;;;;4970564;28;20038;-74
2023/03/20 02:59:55;;;;;;;4.93;2.92;;;9.10;99.90;;;;;;4938703;28;20046;-74
2023/03/20 03:02:35;;;;;;;5.47;2.42;;;9.10;99.90;;;;;;4936512;28;20045;-76
2023/03/20 03:05:06;;;;;;;5.45;2.50;;;9.10;99.90;;;;;;4954324;28;20069;-75
2023/03/20 03:07:35;;;;;;;5.93;2.60;;;9.00;99.90;;;;;;4946827;28;20041;-75
2023/03/20 03:10:10;;;;;;;4.53;2.05;;;9.10;99.90;;;;;;4933547;28;20046;-76
2023/03/20 03:12:45;;;;;;;5.07;2.42;;;9.10;99.90;;;;;;4961576;28;20030;-76
2023/03/20 03:15:33;;;;;;;5.95;2.42;;;9.10;99.90;;;;;;4935697;28;20034;-76
2023/03/20 03:18:01;;;;;;;5.90;2.45;;;9.00;99.90;;;;;;4944520;28;20045;-75
2023/03/20 03:20:31;;;;;;;5.82;2.30;;;9.00;99.90;;;;;;4949941;28;20051;-75
2023/03/20 03:22:59;;;;;;;5.60;3.50;;;9.00;99.90;;;;;;4930449;28;20042;-76
2023/03/20 03:25:31;;;;;;;7.70;3.20;;;9.00;99.90;;;;;;4957479;28;20053;-77
2023/03/20 03:28:30;;;;;;;6.45;2.85;;;9.00;99.90;;;;;;4958099;28;20520;-75
2023/03/20 03:30:59;;;;;;;7.18;3.08;;;8.90;99.90;;;;;;4948493;28;20046;-75
2023/03/20 03:33:33;;;;;;;6.07;2.88;;;8.90;99.90;;;;;;4962367;28;20054;-77
2023/03/20 03:36:23;;;;;;;8.00;3.40;;;9.00;99.90;;;;;;4965578;28;20504;-76
2023/03/20 03:39:03;;;;;;;5.38;2.45;;;8.90;99.90;;;;;;4954917;28;20042;-76
2023/03/20 03:41:45;;;;;;;7.00;3.35;;;8.90;99.90;;;;;;4941049;28;20690;-75
2023/03/20 03:44:47;;;;;;;5.75;2.95;;;8.80;99.90;;;;;;4974348;28;20054;-75
2023/03/20 03:47:39;;;;;;;7.25;2.92;;;8.80;99.90;;;;;;4966115;28;20038;-75
2023/03/20 03:50:22;;;;;;;7.50;4.13;;;8.70;99.90;;;;;;4960232;28;20042;-75
2023/03/20 03:52:51;;;;;;;5.55;3.22;;;8.70;99.90;;;;;;4979463;28;20045;-77
2023/03/20 03:55:25;;;;;;;8.45;3.50;;;8.70;99.90;;;;;;4961444;28;20049;-76
2023/03/20 03:58:35;;;;;;;7.22;3.95;;;8.60;99.90;;;;;;4934072;28;22721;-74
2023/03/20 04:01:03;;;;;;;8.65;3.55;;;8.60;99.90;;;;;;4954290;28;20046;-74
2023/03/20 04:03:35;;;;;;;7.18;3.83;;;8.60;99.90;;;;;;4955015;28;20616;-75
2023/03/20 04:06:03;;;;;;;9.13;4.22;;;8.60;99.90;;;;;;4968447;28;20042;-75
2023/03/20 04:08:29;;;;;;;8.20;4.95;;;8.60;99.90;;;;;;4968398;28;20042;-76
2023/03/20 04:10:58;;;;;;;6.20;4.30;;;8.50;99.90;;;;;;4956356;28;20037;-75
2023/03/20 04:13:25;;;;;;;9.60;4.97;;;8.50;99.90;;;;;;4963572;28;20390;-74
2023/03/20 04:15:51;;;;;;;12.07;5.55;;;8.50;99.90;;;;;;4946546;28;20056;-74
2023/03/20 04:18:18;;;;;;;11.38;4.47;;;8.40;99.90;;;;;;4950880;28;20053;-74
2023/03/20 04:20:47;;;;;;;7.03;4.43;;;8.40;99.90;;;;;;4951937;28;20049;-74
2023/03/20 04:23:14;;;;;;;9.85;5.40;;;8.40;99.90;;;;;;4965416;28;22222;-75
2023/03/20 04:25:40;;;;;;;16.00;7.60;;;8.30;99.90;;;;;;4968048;28;20045;-75
2023/03/20 04:28:07;;;;;;;17.83;7.35;;;8.30;99.90;;;;;;4933688;28;20041;-74
2023/03/20 04:30:56;;;;;;;12.43;6.05;;;8.30;99.90;;;;;;4938063;28;20434;-75
2023/03/20 04:33:33;;;;;;;13.07;7.57;;;8.30;99.90;;;;;;4945595;28;20038;-74
2023/03/20 04:36:20;;;;;;;12.80;7.07;;;8.20;99.90;;;;;;4955010;28;21228;-77
2023/03/20 04:38:46;;;;;;;13.27;7.57;;;8.20;99.90;;;;;;4929764;28;20412;-75
2023/03/20 04:41:12;;;;;;;15.55;7.20;;;8.10;99.90;;;;;;4959861;28;20061;-75
2023/03/20 04:43:39;;;;;;;21.70;11.00;;;8.10;99.90;;;;;;4952004;28;20050;-75
2023/03/20 04:46:06;;;;;;;18.20;9.65;;;8.10;99.90;;;;;;4960588;28;20038;-74
2023/03/20 04:48:32;;;;;;;15.98;9.65;;;8.10;99.90;;;;;;4974721;28;20046;-76
2023/03/20 04:50:59;;;;;;;18.13;9.27;;;8.10;99.90;;;;;;4936087;28;20073;-75
2023/03/20 04:53:37;;;;;;;16.25;9.43;;;8.00;99.90;;;;;;4944890;28;20028;-75
2023/03/20 04:56:04;;;;;;;17.77;10.60;;;8.10;99.90;;;;;;4959315;28;20544;-75
2023/03/20 04:58:32;;;;;;;22.42;13.88;;;8.10;99.90;;;;;;4965406;28;20048;-76
2023/03/20 05:00:59;;;;;;;16.02;9.82;;;8.10;99.90;;;;;;4961702;28;20525;-76
2023/03/20 05:03:26;;;;;;;23.75;12.65;;;8.10;99.90;;;;;;4945707;28;20056;-76
2023/03/20 05:05:53;;;;;;;21.58;12.88;;;8.10;99.90;;;;;;4958306;28;20065;-76
2023/03/20 05:08:19;;;;;;;23.95;14.00;;;8.10;99.90;;;;;;4959117;28;20042;-75
2023/03/20 05:10:46;;;;;;;22.98;13.98;;;8.00;99.90;;;;;;4950657;28;20041;-77
2023/03/20 05:13:31;;;;;;;25.63;13.52;;;8.00;99.90;;;;;;4972290;28;20058;-74
2023/03/20 05:16:15;;;;;;;25.50;13.57;;;8.00;99.90;;;;;;4984389;28;20061;-75
2023/03/20 05:18:54;;;;;;;22.70;11.40;;;8.00;99.90;;;;;;4964013;28;20670;-76
2023/03/20 05:21:39;;;;;;;22.15;12.90;;;8.00;99.90;;;;;;4959055;28;20056;-77
2023/03/20 05:24:28;;;;;;;23.27;11.85;;;8.00;99.90;;;;;;4942019;28;20037;-75
2023/03/20 05:27:29;;;;;;;22.90;11.65;;;8.00;99.90;;;;;;4947668;28;20033;-75
2023/03/20 05:30:28;;;;;;;16.55;9.65;;;8.00;99.90;;;;;;4931249;28;20366;-75
2023/03/20 05:33:13;;;;;;;21.48;11.02;;;8.00;99.90;;;;;;4979410;28;20057;-77
2023/03/20 05:35:58;;;;;;;19.20;10.73;;;8.00;99.90;;;;;;4966713;28;20045;-75
2023/03/20 05:39:04;;;;;;;15.30;8.57;;;8.00;99.90;;;;;;4950811;28;20057;-77
2023/03/20 05:41:30;;;;;;;18.92;10.18;;;8.00;99.90;;;;;;4957333;28;20042;-77
2023/03/20 05:44:08;;;;;;;16.52;8.43;;;8.00;99.90;;;;;;4956769;28;20385;-75
2023/03/20 05:47:02;;;;;;;17.35;8.95;;;8.00;99.90;;;;;;4943252;28;20409;-76
2023/03/20 05:49:45;;;;;;;17.60;9.90;;;8.00;99.90;;;;;;4939726;28;20509;-75
2023/03/20 05:52:36;;;;;;;14.45;8.27;;;8.00;99.90;;;;;;4966202;28;20065;-73
2023/03/20 05:55:25;;;;;;;19.08;11.45;;;8.00;99.90;;;;;;4938867;28;20034;-73
2023/03/20 05:58:10;;;;;;;15.90;8.85;;;8.00;99.90;;;;;;4970447;28;20674;-72
2023/03/20 06:01:06;;;;;;;14.65;8.40;;;8.00;99.90;;;;;;4944548;28;20046;-73
2023/03/20 06:03:53;;;;;;;15.82;8.77;;;8.00;99.90;;;;;;4956830;28;20501;-75
2023/03/20 06:06:40;;;;;;;18.20;8.15;;;8.00;99.90;;;;;;4933438;28;20042;-73
2023/03/20 06:09:06;;;;;;;15.60;8.23;;;8.00;99.90;;;;;;4960024;28;20049;-73
2023/03/20 06:11:33;;;;;;;14.32;8.02;;;8.00;99.90;;;;;;4960442;28;20416;-73
2023/03/20 06:14:00;;;;;;;14.15;7.82;;;8.00;99.90;;;;;;4967102;28;20436;-72
2023/03/20 06:16:35;;;;;;;12.40;7.35;;;8.10;99.90;;;;;;4958121;28;20493;-72
2023/03/20 06:19:01;;;;;;;12.20;7.10;;;8.10;99.90;;;;;;4940957;28;20504;-73
2023/03/20 06:21:28;;;;;;;12.60;7.35;;;8.10;99.90;;;;;;4938160;28;20041;-74
2023/03/20 06:23:55;;;;;;;15.77;7.90;;;8.10;99.90;;;;;;4949156;28;21532;-74
2023/03/20 06:26:23;;;;;;;12.27;6.93;;;8.10;99.90;;;;;;4967117;28;20042;-74
2023/03/20 06:29:06;;;;;;;11.85;7.20;;;8.20;99.90;;;;;;4955241;28;20041;-75
2023/03/20 06:31:33;;;;;;;12.80;8.10;;;8.20;99.90;;;;;;4950662;28;20606;-76
2023/03/20 06:34:01;;;;;;;14.20;7.15;;;8.30;99.90;;;;;;4943185;28;20054;-73
2023/03/20 06:36:30;;;;;;;15.13;7.90;;;8.30;99.90;;;;;;4975306;28;20512;-74
2023/03/20 06:39:03;;;;;;;10.98;6.95;;;8.40;99.90;;;;;;4964731;28;20042;-75
2023/03/20 06:41:30;;;;;;;18.75;8.43;;;8.40;99.90;;;;;;4962061;28;20062;-72
2023/03/20 06:43:56;;;;;;;17.38;8.68;;;8.40;99.90;;;;;;4964947;28;20046;-73
2023/03/20 06:46:27;;;;;;;14.95;8.23;;;8.50;99.90;;;;;;4960210;28;20046;-75
2023/03/20 06:48:54;;;;;;;10.35;6.38;;;8.60;99.90;;;;;;4951887;28;20041;-71
2023/03/20 06:51:21;;;;;;;17.17;8.52;;;8.60;99.90;;;;;;4951904;28;20377;-72
2023/03/20 06:53:51;;;;;;;18.23;10.18;;;8.70;99.90;;;;;;4956731;28;20520;-71
2023/03/20 06:56:21;;;;;;;15.68;8.93;;;8.60;99.90;;;;;;4942619;28;20418;-73
2023/03/20 06:58:47;;;;;;;20.08;9.68;;;8.60;99.90;;;;;;4979247;28;20700;-74
2023/03/20 07:01:16;;;;;;;16.08;9.13;;;8.60;99.90;;;;;;4958887;28;20065;-75
2023/03/20 07:03:43;;;;;;;15.38;8.73;;;8.60;99.90;;;;;;4957134;28;20034;-74
2023/03/20 07:06:11;;;;;;;14.70;7.22;;;8.60;99.90;;;;;;4966297;28;20373;-74
2023/03/20 07:08:37;;;;;;;12.77;7.60;;;8.60;99.90;;;;;;4954446;28;20046;-75
2023/03/20 07:11:04;;;;;;;14.65;8.30;;;8.60;99.90;;;;;;4949998;28;20041;-74
2023/03/20 07:13:32;;;;;;;15.20;9.00;;;8.70;99.90;;;;;;4955846;28;20041;-76
2023/03/20 07:16:04;;;;;;;14.80;8.07;;;8.70;99.90;;;;;;4963765;28;20209;-74
2023/03/20 07:18:35;;;;;;;16.42;8.55;;;8.70;99.90;;;;;;4961109;28;20035;-76
2023/03/20 07:21:05;;;;;;;13.40;7.35;;;8.70;99.90;;;;;;4945075;28;20042;-74
2023/03/20 07:23:33;;;;;;;14.05;8.52;;;8.80;99.90;;;;;;4939992;28;20209;-71
2023/03/20 07:26:00;;;;;;;16.02;8.98;;;8.80;99.90;;;;;;4956569;28;20048;-71
2023/03/20 07:28:26;;;;;;;16.52;8.60;;;8.80;99.90;;;;;;4954796;28;20056;-72
2023/03/20 07:31:05;;;;;;;15.98;8.10;;;8.90;99.90;;;;;;4953242;28;20046;-76
2023/03/20 07:33:32;;;;;;;16.25;9.88;;;8.90;99.90;;;;;;4964474;28;20385;-76
2023/03/20 07:35:59;;;;;;;17.73;9.50;;;9.00;99.90;;;;;;4964904;28;20022;-76
2023/03/20 07:38:25;;;;;;;17.35;8.00;;;9.00;99.90;;;;;;4951596;28;20038;-74
2023/03/20 07:41:04;;;;;;;13.13;7.10;;;9.00;99.90;;;;;;4949562;28;20038;-77
2023/03/20 07:43:33;;;;;;;15.75;8.30;;;9.00;99.90;;;;;;4955686;28;20053;-75
2023/03/20 07:46:18;;;;;;;15.77;8.48;;;9.00;99.90;;;;;;4960434;28;20531;-74
2023/03/20 07:48:44;;;;;;;13.18;7.95;;;9.00;99.90;;;;;;4956906;28;20038;-77
2023/03/20 07:51:11;;;;;;;12.48;6.18;;;9.00;99.90;;;;;;4958952;28;20709;-76
2023/03/20 07:53:37;;;;;;;13.43;7.30;;;9.00;99.90;;;;;;4963813;28;20493;-76
2023/03/20 07:56:04;;;;;;;16.52;6.85;;;9.00;99.90;;;;;;4942900;28;20037;-74
2023/03/20 07:58:31;;;;;;;11.52;6.88;;;9.00;99.90;;;;;;4942607;28;20034;-77
2023/03/20 08:00:57;;;;;;;12.77;7.28;;;9.10;99.90;;;;;;4933423;28;20694;-74
2023/03/20 08:03:24;;;;;;;12.57;6.50;;;9.10;99.90;;;;;;4973840;28;20418;-78
2023/03/20 08:05:50;;;;;;;11.85;6.20;;;9.10;99.90;;;;;;4963123;28;20034;-73
2023/03/20 08:08:16;;;;;;;16.52;7.28;;;9.20;99.90;;;;;;4981646;28;20045;-72
2023/03/20 08:10:43;;;;;;;16.70;9.10;;;9.20;99.90;;;;;;4956803;28;20120;-72
2023/03/20 08:13:09;;;;;;;11.10;6.10;;;9.20;99.90;;;;;;4976970;28;20048;-73
2023/03/20 08:15:35;;;;;;;18.00;7.68;;;9.20;99.90;;;;;;4975555;28;20053;-73
2023/03/20 08:18:01;;;;;;;11.07;5.78;;;9.20;99.90;;;;;;4976052;28;20109;-75
2023/03/20 08:20:28;;;;;;;10.07;5.88;;;9.30;99.90;;;;;;4950844;28;20855;-73
2023/03/20 08:22:54;;;;;;;14.98;6.45;;;9.30;99.90;;;;;;4961639;28;20046;-74
2023/03/20 08:25:20;;;;;;;17.98;7.00;;;9.30;99.90;;;;;;4936605;28;20045;-76
2023/03/20 08:27:47;;;;;;;9.27;5.65;;;9.40;99.90;;;;;;4965951;28;20041;-75
2023/03/20 08:30:14;;;;;;;13.40;6.10;;;9.40;99.90;;;;;;4921535;28;20371;-74
2023/03/20 08:32:41;;;;;;;11.65;6.00;;;9.30;99.90;;;;;;4958283;28;20049;-77
2023/03/20 08:35:08;;;;;;;12.82;6.25;;;9.40;99.90;;;;;;4976581;28;20402;-76
2023/03/20 08:37:36;;;;;;;11.65;5.40;;;9.40;99.90;;;;;;4947142;28;20037;-81
2023/03/20 08:40:05;;;;;;;16.20;6.72;;;9.40;99.90;;;;;;4971136;28;20049;-76
2023/03/20 08:42:31;;;;;;;11.82;5.13;;;9.40;99.90;;;;;;4950966;28;20065;-76
2023/03/20 08:44:58;;;;;;;9.88;4.85;;;9.50;99.90;;;;;;4959067;28;20046;-76
2023/03/20 08:47:25;;;;;;;14.10;7.15;;;9.50;99.90;;;;;;4965081;28;21276;-75
2023/03/20 08:49:51;;;;;;;12.07;5.63;;;9.50;99.90;;;;;;4947187;28;20041;-75
2023/03/20 08:52:17;;;;;;;13.32;6.00;;;9.60;99.90;;;;;;4971330;28;20037;-74
2023/03/20 08:54:44;;;;;;;12.48;5.88;;;9.60;99.90;;;;;;4956916;28;20096;-75
2023/03/20 08:57:10;;;;;;;17.33;7.07;;;9.60;99.90;;;;;;4969667;28;20039;-75
2023/03/20 08:59:37;;;;;;;11.45;6.07;;;9.60;99.90;;;;;;4935001;28;20061;-75
2023/03/20 09:02:03;;;;;;;11.98;5.65;;;9.60;99.90;;;;;;4960612;28;20073;-75
2023/03/20 09:04:29;;;;;;;10.73;5.18;;;9.60;99.90;;;;;;4958088;28;20784;-76
2023/03/20 09:06:56;;;;;;;14.15;5.15;;;9.60;99.90;;;;;;4936995;28;20043;-73
2023/03/20 09:09:28;;;;;;;11.05;6.03;;;9.70;99.90;;;;;;4946770;28;20061;-76
2023/03/20 09:11:55;;;;;;;12.38;4.75;;;9.70;99.90;;;;;;4954262;28;20089;-74
2023/03/20 09:14:22;;;;;;;9.77;5.00;;;9.80;99.90;;;;;;4969757;28;20642;-76
2023/03/20 09:16:49;;;;;;;13.40;5.03;;;9.90;99.90;;;;;;4965498;28;20053;-73
2023/03/20 09:19:16;;;;;;;12.32;5.82;;;10.00;99.90;;;;;;4952935;28;20049;-75
2023/03/20 09:21:43;;;;;;;13.13;5.57;;;10.00;99.90;;;;;;4939634;28;20378;-73
2023/03/20 09:24:10;;;;;;;11.65;4.40;;;10.10;99.90;;;;;;4964917;28;20045;-76
2023/03/20 09:26:38;;;;;;;10.02;3.80;;;10.20;99.90;;;;;;4955001;28;20495;-73
2023/03/20 09:29:05;;;;;;;12.57;4.63;;;10.30;99.90;;;;;;4933970;28;20050;-76
2023/03/20 09:31:31;;;;;;;13.50;4.05;;;10.30;99.90;;;;;;4952785;28;20042;-73
2023/03/20 09:33:59;;;;;;;13.38;4.45;;;10.40;99.90;;;;;;4966604;28;20536;-73
2023/03/20 09:36:25;;;;;;;10.80;4.13;;;10.50;99.90;;;;;;4965695;28;20057;-73
2023/03/20 09:38:51;;;;;;;9.23;3.63;;;10.60;99.90;;;;;;4954825;28;20483;-74
2023/03/20 09:41:23;;;;;;;9.88;3.53;;;10.60;99.90;;;;;;4952052;28;21146;-76
2023/03/20 09:44:08;;;;;;;11.55;4.15;;;10.70;99.90;;;;;;4952440;28;20046;-74
2023/03/20 09:46:58;;;;;;;10.75;4.70;;;10.80;99.90;;;;;;4956996;28;20490;-75
2023/03/20 09:50:01;;;;;;;10.00;3.05;;;10.80;99.90;;;;;;4949361;28;21006;-76
2023/03/20 09:52:48;;;;;;;8.70;3.55;;;10.90;99.90;;;;;;4962107;28;20049;-78
2023/03/20 09:55:21;;;;;;;9.73;3.33;;;10.90;99.90;;;;;;4961090;28;20042;-77
2023/03/20 09:57:53;;;;;;;10.38;3.88;;;11.00;99.90;;;;;;4957738;28;20858;-74
2023/03/20 10:00:23;;;;;;;10.75;3.03;;;11.00;99.90;;;;;;4942717;28;20393;-75
2023/03/20 10:02:59;;;;;;;6.20;3.08;;;11.00;99.90;;;;;;4935647;28;21643;-75
2023/03/20 10:05:47;;;;;;;9.02;3.10;;;10.90;99.90;;;;;;4950303;28;20038;-75
2023/03/20 10:08:17;;;;;;;7.90;3.40;;;10.90;99.90;;;;;;4956238;28;20422;-74
2023/03/20 10:10:55;;;;;;;10.23;3.42;;;10.90;99.90;;;;;;4953980;28;20038;-75
2023/03/20 10:13:56;;;;;;;10.23;4.15;;;10.90;99.90;;;;;;4955065;28;20042;-74
2023/03/20 10:16:37;;;;;;;9.20;4.28;;;10.90;99.90;;;;;;4953184;28;21811;-76
2023/03/20 10:19:18;;;;;;;9.32;3.47;;;11.00;99.90;;;;;;4945410;28;20535;-74
2023/03/20 10:21:48;;;;;;;9.35;4.32;;;11.00;99.90;;;;;;4949416;28;20045;-73
2023/03/20 10:24:59;;;;;;;16.17;5.20;;;11.00;99.90;;;;;;4936560;28;20050;-73
2023/03/20 10:27:32;;;;;;;10.25;4.43;;;11.10;99.90;;;;;;4948883;28;20530;-73
2023/03/20 10:30:14;;;;;;;13.30;4.38;;;11.20;99.90;;;;;;4933193;28;20038;-75
2023/03/20 10:32:49;;;;;;;9.77;3.70;;;11.40;99.90;;;;;;4951124;28;20049;-76
2023/03/20 10:35:30;;;;;;;9.70;3.80;;;11.50;99.90;;;;;;4954425;28;20069;-72
2023/03/20 10:37:59;;;;;;;10.57;3.65;;;11.60;99.90;;;;;;4950105;28;20048;-73
2023/03/20 10:40:34;;;;;;;9.05;3.10;;;11.60;99.90;;;;;;4941953;28;21133;-76
2023/03/20 10:43:15;;;;;;;10.65;3.80;;;11.60;99.90;;;;;;4952004;28;20046;-73
2023/03/20 10:45:51;;;;;;;8.98;3.38;;;11.60;99.90;;;;;;4958640;28;20046;-72
2023/03/20 10:48:26;;;;;;;5.85;3.40;;;11.60;99.90;;;;;;4950243;28;20042;-76
2023/03/20 10:50:56;;;;;;;9.50;4.00;;;11.60;99.90;;;;;;4943828;28;20034;-73
2023/03/20 10:53:25;;;;;;;15.32;5.65;;;11.60;99.90;;;;;;4951331;28;20057;-74
2023/03/20 10:55:57;;;;;;;12.10;3.90;;;11.50;99.90;;;;;;4953334;28;20045;-75
2023/03/20 10:58:27;;;;;;;8.68;3.83;;;11.50;99.90;;;;;;4955045;28;20038;-72
2023/03/20 11:00:57;;;;;;;7.28;3.00;;;11.50;99.90;;;;;;4949836;28;20042;-75
2023/03/20 11:03:27;;;;;;;7.80;3.17;;;11.60;99.90;;;;;;4956063;28;20031;-73
2023/03/20 11:06:01;;;;;;;7.57;2.90;;;11.60;99.90;;;;;;4951886;28;20049;-72
2023/03/20 11:08:36;;;;;;;9.93;2.47;;;11.80;99.90;;;;;;4951632;28;20393;-71
2023/03/20 11:11:03;;;;;;;7.97;2.47;;;11.80;99.90;;;;;;4948296;28;20516;-72
2023/03/20 11:13:32;;;;;;;7.60;2.65;;;11.90;99.90;;;;;;4946257;28;20054;-72
2023/03/20 11:16:18;;;;;;;7.25;2.10;;;11.90;99.90;;;;;;4940470;28;20524;-71
2023/03/20 11:18:45;;;;;;;9.45;2.03;;;11.90;99.90;;;;;;4956874;28;20027;-72
2023/03/20 11:21:27;;;;;;;8.23;2.20;;;11.90;99.90;;;;;;4953376;28;20046;-74
2023/03/20 11:23:54;;;;;;;8.52;2.80;;;11.80;99.90;;;;;;4953459;28;20046;-75
2023/03/20 11:26:36;;;;;;;7.43;2.25;;;11.80;99.90;;;;;;4951415;28;20054;-74
2023/03/20 11:29:19;;;;;;;10.88;3.03;;;11.90;99.90;;;;;;4934734;28;20053;-75
2023/03/20 11:31:45;;;;;;;8.40;1.95;;;11.90;99.90;;;;;;4957979;28;20058;-74
2023/03/20 11:34:14;;;;;;;7.07;2.00;;;11.90;99.90;;;;;;4960070;28;20515;-76
2023/03/20 11:36:55;;;;;;;6.97;1.55;;;11.80;99.90;;;;;;4962937;28;20502;-73
2023/03/20 11:39:26;;;;;;;6.53;1.50;;;11.70;99.90;;;;;;4946232;28;20049;-72
2023/03/20 11:41:54;;;;;;;5.43;2.00;;;11.60;99.90;;;;;;4953422;28;20068;-71
2023/03/20 11:44:35;;;;;;;8.55;2.83;;;11.60;99.90;;;;;;4950698;28;21315;-73
2023/03/20 11:47:04;;;;;;;8.18;3.67;;;11.60;99.90;;;;;;4952287;28;20477;-75
2023/03/20 11:49:33;;;;;;;7.53;3.20;;;11.60;99.90;;;;;;4917199;28;20669;-73
2023/03/20 11:52:10;;;;;;;8.88;3.53;;;11.70;99.90;;;;;;4965476;28;20126;-74
2023/03/20 11:54:39;;;;;;;9.50;3.90;;;11.80;99.90;;;;;;4928241;28;20053;-75
2023/03/20 11:57:05;;;;;;;8.07;3.95;;;11.90;99.90;;;;;;4955882;28;20117;-75
2023/03/20 11:59:34;;;;;;;10.63;3.03;;;12.10;99.90;;;;;;4944275;28;20055;-73
2023/03/20 12:02:03;;;;;;;11.68;3.97;;;12.00;99.90;;;;;;4951762;28;20050;-71
2023/03/20 12:04:41;;;;;;;11.20;3.85;;;12.10;99.90;;;;;;4936542;28;20057;-74
2023/03/20 12:07:17;;;;;;;7.65;2.88;;;12.20;99.90;;;;;;4956212;28;20038;-71
2023/03/20 12:10:01;;;;;;;7.50;2.92;;;12.10;99.90;;;;;;4957475;28;20498;-74
2023/03/20 12:12:46;;;;;;;11.27;2.92;;;12.20;99.90;;;;;;4960401;28;20418;-74
2023/03/20 12:15:22;;;;;;;8.45;2.15;;;12.10;99.90;;;;;;4951345;28;20058;-72
2023/03/20 12:18:23;;;;;;;8.82;2.95;;;12.00;99.90;;;;;;4956727;28;20030;-74
2023/03/20 12:20:59;;;;;;;9.50;2.88;;;12.00;99.90;;;;;;4945586;28;20046;-73
2023/03/20 12:24:04;;;;;;;8.75;3.08;;;12.00;99.90;;;;;;4954517;28;20034;-74
2023/03/20 12:26:41;;;;;;;7.32;1.25;;;11.90;99.90;;;;;;4948784;28;20061;-71
2023/03/20 12:29:24;;;;;;;10.23;2.67;;;11.90;99.90;;;;;;4960231;28;20046;-74
2023/03/20 12:31:54;;;;;;;9.05;3.05;;;11.90;99.90;;;;;;4951576;28;20053;-71
2023/03/20 12:34:30;;;;;;;5.97;2.13;;;11.80;99.90;;;;;;4939157;28;20054;-73
2023/03/20 12:36:56;;;;;;;13.25;3.90;;;11.80;99.90;;;;;;4954516;28;20042;-74
2023/03/20 12:39:33;;;;;;;12.20;3.15;;;11.80;99.90;;;;;;4927540;28;20042;-71
2023/03/20 12:42:30;;;;;;;11.07;3.10;;;11.80;99.90;;;;;;4952955;28;20383;-78
2023/03/20 12:45:02;;;;;;;8.10;2.63;;;11.80;99.90;;;;;;4945886;28;20046;-72
2023/03/20 12:48:11;;;;;;;7.18;3.72;;;11.90;99.90;;;;;;4959093;28;20034;-73
2023/03/20 12:50:43;;;;;;;13.15;4.20;;;12.00;99.90;;;;;;4936914;28;20049;-74
2023/03/20 12:53:32;;;;;;;7.32;2.65;;;12.00;99.90;;;;;;4953213;28;20045;-74
2023/03/20 12:56:35;;;;;;;10.63;4.03;;;12.00;99.90;;;;;;4952385;28;20053;-75
2023/03/20 12:59:09;;;;;;;;;;;12.00;99.90;;;;;;4930309;28;20058;-79
2023/03/20 13:01:45;;;;;;;12.90;3.45;;;12.00;99.90;;;;;;4958352;28;19917;-74
2023/03/20 13:04:23;;;;;;;13.80;4.80;;;11.90;99.90;;;;;;4959672;28;20039;-71
2023/03/20 13:07:01;;;;;;;11.40;4.05;;;11.90;99.90;;;;;;4920795;28;20035;-76
2023/03/20 13:09:39;;;;;;;15.15;5.00;;;11.80;99.90;;;;;;4943886;28;21737;-76
2023/03/20 13:12:17;;;;;;;11.77;3.67;;;11.80;99.90;;;;;;4951811;28;20041;-79
2023/03/20 13:14:49;;;;;;;9.40;3.72;;;11.70;99.90;;;;;;4939662;28;21104;-76
2023/03/20 13:17:36;;;;;;;10.45;4.60;;;11.70;99.90;;;;;;4944883;28;20031;-76
2023/03/20 13:20:25;;;;;;;11.52;4.68;;;11.70;99.90;;;;;;4958170;28;20045;-74
2023/03/20 13:23:28;;;;;;;10.77;4.07;;;11.70;99.90;;;;;;4958094;28;20049;-75